sensor_id;sensor_type;location;lat;lon;timestamp;pressure;altitude;pressure_sealevel;temperature;humidity
70206;BME280;57593;55.896;37.396;2022-08-20T00:00:24;100392.75;;;20.14;46.76
70206;BME280;57593;55.896;37.396;2022-08-20T00:00:55;100391.59;;;20.15;46.60
70206;BME280;57593;55.896;37.396;2022-08-20T00:01:26;100397.84;;;20.26;46.50
70206;BME280;57593;55.896;37.396;2022-08-20T00:01:56;100402.84;;;20.31;46.47
70206;BME280;57593;55.896;37.396;2022-08-20T00:02:27;100392.88;;;20.28;46.49
70206;BME280;57593;55.896;37.396;2022-08-20T00:03:01;100392.13;;;20.31;46.50
70206;BME280;57593;55.896;37.396;2022-08-20T00:03:38;100399.06;;;20.36;46.54
70206;BME280;57593;55.896;37.396;2022-08-20T00:04:08;100397.94;;;20.37;46.47
70206;BME280;57593;55.896;37.396;2022-08-20T00:04:39;100398.31;;;20.39;46.70
70206;BME280;57593;55.896;37.396;2022-08-20T00:05:11;100390.63;;;20.34;46.61
70206;BME280;57593;55.896;37.396;2022-08-20T00:05:45;100392.84;;;20.24;47.15
70206;BME280;57593;55.896;37.396;2022-08-20T00:06:22;100395.97;;;20.34;46.87
70206;BME280;57593;55.896;37.396;2022-08-20T00:06:53;100401.75;;;20.39;46.62
70206;BME280;57593;55.896;37.396;2022-08-20T00:07:24;100393.25;;;20.30;46.65
70206;BME280;57593;55.896;37.396;2022-08-20T00:07:55;100391.38;;;20.34;46.44
70206;BME280;57593;55.896;37.396;2022-08-20T00:08:26;100395.91;;;20.23;46.47
70206;BME280;57593;55.896;37.396;2022-08-20T00:08:57;100394.69;;;20.17;46.82
70206;BME280;57593;55.896;37.396;2022-08-20T00:09:28;100391.63;;;20.18;46.73
70206;BME280;57593;55.896;37.396;2022-08-20T00:09:58;100390.16;;;20.24;46.69
70206;BME280;57593;55.896;37.396;2022-08-20T00:10:32;100398.31;;;20.35;46.54
70206;BME280;57593;55.896;37.396;2022-08-20T00:11:07;100397.41;;;20.24;46.44
70206;BME280;57593;55.896;37.396;2022-08-20T00:11:39;100388.16;;;20.18;46.75
70206;BME280;57593;55.896;37.396;2022-08-20T00:12:11;100397.75;;;20.19;47.05
70206;BME280;57593;55.896;37.396;2022-08-20T00:12:44;100397.38;;;20.17;47.27
70206;BME280;57593;55.896;37.396;2022-08-20T00:13:23;100397.28;;;20.09;47.27
70206;BME280;57593;55.896;37.396;2022-08-20T00:13:57;100401.56;;;20.14;47.40
70206;BME280;57593;55.896;37.396;2022-08-20T00:14:28;100397.38;;;20.17;47.43
70206;BME280;57593;55.896;37.396;2022-08-20T00:15:00;100390.47;;;20.19;47.37
70206;BME280;57593;55.896;37.396;2022-08-20T00:15:33;100391.56;;;20.11;47.38
70206;BME280;57593;55.896;37.396;2022-08-20T00:16:05;100398.06;;;20.10;47.29
70206;BME280;57593;55.896;37.396;2022-08-20T00:16:37;100405.34;;;20.09;47.59
70206;BME280;57593;55.896;37.396;2022-08-20T00:17:08;100398.47;;;20.12;47.97
70206;BME280;57593;55.896;37.396;2022-08-20T00:17:39;100400.06;;;20.17;48.01
70206;BME280;57593;55.896;37.396;2022-08-20T00:18:10;100395.78;;;20.12;48.00
70206;BME280;57593;55.896;37.396;2022-08-20T00:18:42;100394.94;;;20.01;47.99
70206;BME280;57593;55.896;37.396;2022-08-20T00:19:13;100404.94;;;20.07;48.09
70206;BME280;57593;55.896;37.396;2022-08-20T00:19:44;100392.75;;;20.14;47.89
70206;BME280;57593;55.896;37.396;2022-08-20T00:20:16;100397.56;;;19.97;48.40
70206;BME280;57593;55.896;37.396;2022-08-20T00:20:49;100400.66;;;19.99;48.28
70206;BME280;57593;55.896;37.396;2022-08-20T00:21:21;100406.44;;;20.05;48.44
70206;BME280;57593;55.896;37.396;2022-08-20T00:21:52;100404.88;;;20.00;48.13
70206;BME280;57593;55.896;37.396;2022-08-20T00:22:22;100402.97;;;20.01;48.16
70206;BME280;57593;55.896;37.396;2022-08-20T00:22:56;100404.53;;;20.05;48.58
70206;BME280;57593;55.896;37.396;2022-08-20T00:23:27;100403.03;;;20.08;48.63
70206;BME280;57593;55.896;37.396;2022-08-20T00:24:00;100398.03;;;20.06;48.32
70206;BME280;57593;55.896;37.396;2022-08-20T00:24:32;100393.78;;;20.02;48.27
70206;BME280;57593;55.896;37.396;2022-08-20T00:25:05;100405.69;;;20.04;48.27
70206;BME280;57593;55.896;37.396;2022-08-20T00:25:37;100397.16;;;19.95;48.36
70206;BME280;57593;55.896;37.396;2022-08-20T00:26:08;100399.47;;;19.97;48.39
70206;BME280;57593;55.896;37.396;2022-08-20T00:26:40;100401.47;;;20.07;48.17
70206;BME280;57593;55.896;37.396;2022-08-20T00:27:10;100400.72;;;20.06;48.51
70206;BME280;57593;55.896;37.396;2022-08-20T00:27:41;100406.47;;;20.08;48.45
70206;BME280;57593;55.896;37.396;2022-08-20T00:28:12;100400.97;;;19.94;48.62
70206;BME280;57593;55.896;37.396;2022-08-20T00:28:46;100399.81;;;19.91;48.99
70206;BME280;57593;55.896;37.396;2022-08-20T00:29:17;100398.75;;;20.00;48.95
70206;BME280;57593;55.896;37.396;2022-08-20T00:29:47;100395.97;;;19.92;48.94
70206;BME280;57593;55.896;37.396;2022-08-20T00:30:18;100404.88;;;20.00;49.18
70206;BME280;57593;55.896;37.396;2022-08-20T00:30:49;100406.41;;;20.01;48.84
70206;BME280;57593;55.896;37.396;2022-08-20T00:31:22;100408.22;;;19.90;48.94
70206;BME280;57593;55.896;37.396;2022-08-20T00:31:53;100408.25;;;19.93;49.07
70206;BME280;57593;55.896;37.396;2022-08-20T00:32:23;100405.22;;;19.99;48.97
70206;BME280;57593;55.896;37.396;2022-08-20T00:32:57;100401.41;;;19.96;49.23
70206;BME280;57593;55.896;37.396;2022-08-20T00:33:30;100397.63;;;20.04;49.02
70206;BME280;57593;55.896;37.396;2022-08-20T00:34:01;100400.72;;;20.06;49.13
70206;BME280;57593;55.896;37.396;2022-08-20T00:34:32;100397.16;;;19.95;49.14
70206;BME280;57593;55.896;37.396;2022-08-20T00:35:03;100396.31;;;19.87;49.16
70206;BME280;57593;55.896;37.396;2022-08-20T00:35:37;100394.03;;;19.89;49.44
70206;BME280;57593;55.896;37.396;2022-08-20T00:36:09;100389.88;;;19.96;49.25
70206;BME280;57593;55.896;37.396;2022-08-20T00:36:41;100405.50;;;19.86;49.46
70206;BME280;57593;55.896;37.396;2022-08-20T00:37:12;100400.88;;;19.83;49.51
70206;BME280;57593;55.896;37.396;2022-08-20T00:37:43;100397.81;;;19.85;49.46
70206;BME280;57593;55.896;37.396;2022-08-20T00:38:13;100395.88;;;19.82;49.63
70206;BME280;57593;55.896;37.396;2022-08-20T00:38:45;100400.09;;;19.83;49.80
70206;BME280;57593;55.896;37.396;2022-08-20T00:39:16;100392.88;;;19.87;49.73
70206;BME280;57593;55.896;37.396;2022-08-20T00:39:47;100401.22;;;19.82;49.73
70206;BME280;57593;55.896;37.396;2022-08-20T00:40:21;100400.06;;;19.79;49.86
70206;BME280;57593;55.896;37.396;2022-08-20T00:40:54;100392.44;;;19.81;49.93
70206;BME280;57593;55.896;37.396;2022-08-20T00:41:28;100394.56;;;19.68;50.13
70206;BME280;57593;55.896;37.396;2022-08-20T00:42:00;100390.78;;;19.73;50.21
70206;BME280;57593;55.896;37.396;2022-08-20T00:42:43;100397.75;;;19.78;50.38
70206;BME280;57593;55.896;37.396;2022-08-20T00:44:10;100396.22;;;19.80;50.32
70206;BME280;57593;55.896;37.396;2022-08-20T00:44:45;100398.19;;;19.83;50.34
70206;BME280;57593;55.896;37.396;2022-08-20T00:45:19;100391.66;;;19.81;50.15
70206;BME280;57593;55.896;37.396;2022-08-20T00:45:50;100393.88;;;19.75;50.42
70206;BME280;57593;55.896;37.396;2022-08-20T00:46:26;100400.44;;;19.78;50.38
70206;BME280;57593;55.896;37.396;2022-08-20T00:46:57;100397.66;;;19.70;50.68
70206;BME280;57593;55.896;37.396;2022-08-20T00:47:28;100399.28;;;19.79;50.82
70206;BME280;57593;55.896;37.396;2022-08-20T00:47:59;100397.66;;;19.74;50.47
70206;BME280;57593;55.896;37.396;2022-08-20T00:48:32;100401.03;;;19.64;50.77
70206;BME280;57593;55.896;37.396;2022-08-20T00:49:05;100401.41;;;19.66;50.88
70206;BME280;57593;55.896;37.396;2022-08-20T00:49:37;100403.75;;;19.71;50.89
70206;BME280;57593;55.896;37.396;2022-08-20T00:50:14;100398.41;;;19.71;50.92
70206;BME280;57593;55.896;37.396;2022-08-20T00:50:45;100394.47;;;19.61;51.21
70206;BME280;57593;55.896;37.396;2022-08-20T00:51:33;100388.25;;;19.53;51.29
70206;BME280;57593;55.896;37.396;2022-08-20T00:52:13;100394.00;;;19.52;51.48
70206;BME280;57593;55.896;37.396;2022-08-20T00:52:48;100392.78;;;19.49;51.54
70206;BME280;57593;55.896;37.396;2022-08-20T00:53:20;100402.88;;;19.60;51.30
70206;BME280;57593;55.896;37.396;2022-08-20T00:54:05;100395.56;;;19.56;51.31
70206;BME280;57593;55.896;37.396;2022-08-20T00:54:43;100383.34;;;19.59;51.32
70206;BME280;57593;55.896;37.396;2022-08-20T00:55:17;100389.84;;;19.58;51.50
70206;BME280;57593;55.896;37.396;2022-08-20T00:55:49;100398.63;;;19.55;51.62
70206;BME280;57593;55.896;37.396;2022-08-20T00:56:20;100391.69;;;19.54;51.58
70206;BME280;57593;55.896;37.396;2022-08-20T00:56:57;100390.94;;;19.53;51.63
70206;BME280;57593;55.896;37.396;2022-08-20T00:57:32;100398.59;;;19.51;52.00
70206;BME280;57593;55.896;37.396;2022-08-20T00:58:06;100398.91;;;19.46;51.89
70206;BME280;57593;55.896;37.396;2022-08-20T00:58:41;100393.59;;;19.50;51.94
70206;BME280;57593;55.896;37.396;2022-08-20T00:59:18;100394.00;;;19.52;52.02
70206;BME280;57593;55.896;37.396;2022-08-20T00:59:51;100398.63;;;19.55;51.84
70206;BME280;57593;55.896;37.396;2022-08-20T01:00:30;100395.06;;;19.47;52.16
70206;BME280;57593;55.896;37.396;2022-08-20T01:01:02;100395.06;;;19.47;52.16
70206;BME280;57593;55.896;37.396;2022-08-20T01:01:34;100403.13;;;19.47;52.21
70206;BME280;57593;55.896;37.396;2022-08-20T01:02:09;100402.00;;;19.48;52.04
70206;BME280;57593;55.896;37.396;2022-08-20T01:02:40;100401.22;;;19.48;52.22
70206;BME280;57593;55.896;37.396;2022-08-20T01:03:15;100394.34;;;19.50;52.30
70206;BME280;57593;55.896;37.396;2022-08-20T01:03:46;100393.94;;;19.48;52.74
70206;BME280;57593;55.896;37.396;2022-08-20T01:04:17;100398.22;;;19.53;52.91
70206;BME280;57593;55.896;37.396;2022-08-20T01:04:48;100392.03;;;19.49;52.82
70206;BME280;57593;55.896;37.396;2022-08-20T01:05:22;100391.16;;;19.37;52.81
70206;BME280;57593;55.896;37.396;2022-08-20T01:05:53;100395.41;;;19.42;52.63
70206;BME280;57593;55.896;37.396;2022-08-20T01:06:24;100395.78;;;19.40;52.86
70206;BME280;57593;55.896;37.396;2022-08-20T01:06:56;100395.81;;;19.44;52.82
70206;BME280;57593;55.896;37.396;2022-08-20T01:07:28;100401.09;;;19.37;52.86
70206;BME280;57593;55.896;37.396;2022-08-20T01:08:04;100391.50;;;19.36;52.76
70206;BME280;57593;55.896;37.396;2022-08-20T01:08:35;100390.75;;;19.35;52.94
70206;BME280;57593;55.896;37.396;2022-08-20T01:09:07;100391.59;;;19.43;52.88
70206;BME280;57593;55.896;37.396;2022-08-20T01:09:38;100398.81;;;19.39;53.05
70206;BME280;57593;55.896;37.396;2022-08-20T01:10:15;100392.28;;;19.36;53.17
70206;BME280;57593;55.896;37.396;2022-08-20T01:10:48;100403.78;;;19.37;53.53
70206;BME280;57593;55.896;37.396;2022-08-20T01:11:19;100397.69;;;19.40;53.21
70206;BME280;57593;55.896;37.396;2022-08-20T01:12:03;100396.88;;;19.36;53.19
70206;BME280;57593;55.896;37.396;2022-08-20T01:12:37;100399.53;;;19.36;53.64
70206;BME280;57593;55.896;37.396;2022-08-20T01:13:15;100390.69;;;19.32;53.62
70206;BME280;57593;55.896;37.396;2022-08-20T01:13:47;100394.88;;;19.29;53.57
70206;BME280;57593;55.896;37.396;2022-08-20T01:14:19;100402.59;;;19.34;53.51
70206;BME280;57593;55.896;37.396;2022-08-20T01:15:16;100397.63;;;19.36;53.51
70206;BME280;57593;55.896;37.396;2022-08-20T01:15:49;100399.56;;;19.39;53.51
70206;BME280;57593;55.896;37.396;2022-08-20T01:16:26;100400.75;;;19.42;53.63
70206;BME280;57593;55.896;37.396;2022-08-20T01:17:02;100394.50;;;19.31;53.79
70206;BME280;57593;55.896;37.396;2022-08-20T01:17:35;100401.50;;;19.39;53.51
70206;BME280;57593;55.896;37.396;2022-08-20T01:18:09;100403.69;;;19.30;53.80
70206;BME280;57593;55.896;37.396;2022-08-20T01:18:41;100403.06;;;19.40;53.54
70206;BME280;57593;55.896;37.396;2022-08-20T01:19:13;100401.84;;;19.37;53.83
70206;BME280;57593;55.896;37.396;2022-08-20T01:20:42;100394.09;;;19.29;53.86
70206;BME280;57593;55.896;37.396;2022-08-20T01:21:14;100399.44;;;19.29;53.93
70206;BME280;57593;55.896;37.396;2022-08-20T01:21:47;100406.38;;;19.33;53.79
70206;BME280;57593;55.896;37.396;2022-08-20T01:22:24;100401.50;;;19.39;53.69
70206;BME280;57593;55.896;37.396;2022-08-20T01:24:30;100405.97;;;19.28;54.04
70206;BME280;57593;55.896;37.396;2022-08-20T01:25:09;100398.22;;;19.22;54.09
70206;BME280;57593;55.896;37.396;2022-08-20T01:26:20;100400.97;;;19.26;53.87
70206;BME280;57593;55.896;37.396;2022-08-20T01:26:53;100398.28;;;19.26;53.98
70206;BME280;57593;55.896;37.396;2022-08-20T01:27:24;100401.34;;;19.28;54.29
70206;BME280;57593;55.896;37.396;2022-08-20T01:27:55;100396.38;;;19.27;54.17
70206;BME280;57593;55.896;37.396;2022-08-20T01:28:43;100410.75;;;19.15;55.32
70206;BME280;57593;55.896;37.396;2022-08-20T01:29:18;100402.34;;;19.16;55.17
70206;BME280;57593;55.896;37.396;2022-08-20T01:29:52;100401.19;;;19.14;54.98
70206;BME280;57593;55.896;37.396;2022-08-20T01:30:25;100400.00;;;19.11;54.70
70206;BME280;57593;55.896;37.396;2022-08-20T01:30:56;100400.47;;;19.17;54.53
70206;BME280;57593;55.896;37.396;2022-08-20T01:31:34;100402.34;;;19.16;54.70
70206;BME280;57593;55.896;37.396;2022-08-20T01:32:05;100403.84;;;19.14;54.73
70206;BME280;57593;55.896;37.396;2022-08-20T01:32:36;100400.50;;;19.20;54.77
70206;BME280;57593;55.896;37.396;2022-08-20T01:33:07;100404.63;;;19.14;54.63
70206;BME280;57593;55.896;37.396;2022-08-20T01:33:38;100402.72;;;19.15;54.58
70206;BME280;57593;55.896;37.396;2022-08-20T01:34:13;100403.13;;;19.17;54.74
70206;BME280;57593;55.896;37.396;2022-08-20T01:34:45;100405.75;;;19.13;54.58
70206;BME280;57593;55.896;37.396;2022-08-20T01:35:20;100403.75;;;19.07;54.80
70206;BME280;57593;55.896;37.396;2022-08-20T01:35:52;100411.06;;;19.10;54.80
70206;BME280;57593;55.896;37.396;2022-08-20T01:36:29;100409.16;;;19.10;54.67
70206;BME280;57593;55.896;37.396;2022-08-20T01:37:00;100402.31;;;19.13;54.69
70206;BME280;57593;55.896;37.396;2022-08-20T01:37:31;100407.56;;;19.06;54.67
70206;BME280;57593;55.896;37.396;2022-08-20T01:38:02;100409.50;;;19.09;54.75
70206;BME280;57593;55.896;37.396;2022-08-20T01:38:33;100406.03;;;19.04;54.92
70206;BME280;57593;55.896;37.396;2022-08-20T01:39:07;100410.28;;;19.09;54.83
70206;BME280;57593;55.896;37.396;2022-08-20T01:39:38;100415.69;;;19.13;54.66
70206;BME280;57593;55.896;37.396;2022-08-20T01:40:10;100416.41;;;19.10;55.17
70206;BME280;57593;55.896;37.396;2022-08-20T01:42:21;100414.13;;;19.12;55.09
70206;BME280;57593;55.896;37.396;2022-08-20T01:42:55;100419.47;;;19.08;54.88
70206;BME280;57593;55.896;37.396;2022-08-20T01:43:26;100409.06;;;19.03;54.92
70206;BME280;57593;55.896;37.396;2022-08-20T01:43:57;100419.41;;;19.04;54.89
70206;BME280;57593;55.896;37.396;2022-08-20T01:44:28;100419.47;;;19.08;54.83
70206;BME280;57593;55.896;37.396;2022-08-20T01:44:59;100419.81;;;19.07;54.84
70206;BME280;57593;55.896;37.396;2022-08-20T01:45:30;100421.38;;;19.08;54.98
70206;BME280;57593;55.896;37.396;2022-08-20T01:46:03;100409.50;;;19.09;54.88
70206;BME280;57593;55.896;37.396;2022-08-20T01:46:36;100421.38;;;19.08;54.94
70206;BME280;57593;55.896;37.396;2022-08-20T01:47:43;100415.28;;;19.11;54.80
70206;BME280;57593;55.896;37.396;2022-08-20T01:48:14;100413.41;;;19.15;54.92
70206;BME280;57593;55.896;37.396;2022-08-20T01:48:44;100417.50;;;19.05;54.98
70206;BME280;57593;55.896;37.396;2022-08-20T01:49:23;100421.38;;;19.08;55.16
70206;BME280;57593;55.896;37.396;2022-08-20T01:49:58;100413.69;;;19.06;55.65
70206;BME280;57593;55.896;37.396;2022-08-20T01:50:31;100416.53;;;19.17;55.28
70206;BME280;57593;55.896;37.396;2022-08-20T01:51:13;100417.19;;;19.10;54.84
70206;BME280;57593;55.896;37.396;2022-08-20T01:51:44;100417.91;;;19.07;54.90
70206;BME280;57593;55.896;37.396;2022-08-20T01:53:17;100410.09;;;18.95;55.36
70206;BME280;57593;55.896;37.396;2022-08-20T01:53:54;100416.38;;;19.06;55.68
70206;BME280;57593;55.896;37.396;2022-08-20T01:54:26;100416.66;;;19.01;55.46
70206;BME280;57593;55.896;37.396;2022-08-20T01:54:56;100416.63;;;18.97;55.22
70206;BME280;57593;55.896;37.396;2022-08-20T01:55:27;100417.09;;;19.03;55.25
70206;BME280;57593;55.896;37.396;2022-08-20T01:56:00;100423.22;;;19.03;54.98
70206;BME280;57593;55.896;37.396;2022-08-20T01:56:32;100420.53;;;19.03;55.36
70206;BME280;57593;55.896;37.396;2022-08-20T01:57:15;100417.75;;;18.96;55.26
70206;BME280;57593;55.896;37.396;2022-08-20T01:57:47;100416.75;;;19.04;55.03
70206;BME280;57593;55.896;37.396;2022-08-20T01:58:18;100411.38;;;19.04;55.14
70206;BME280;57593;55.896;37.396;2022-08-20T01:58:51;100420.66;;;19.11;54.89
70206;BME280;57593;55.896;37.396;2022-08-20T01:59:23;100412.91;;;19.06;55.04
70206;BME280;57593;55.896;37.396;2022-08-20T01:59:54;100418.13;;;18.95;55.35
70206;BME280;57593;55.896;37.396;2022-08-20T02:00:25;100427.00;;;19.02;55.42
70206;BME280;57593;55.896;37.396;2022-08-20T02:00:56;100416.38;;;19.06;55.49
70206;BME280;57593;55.896;37.396;2022-08-20T02:01:29;100417.84;;;19.03;55.56
70206;BME280;57593;55.896;37.396;2022-08-20T02:02:04;100419.34;;;19.01;55.48
70206;BME280;57593;55.896;37.396;2022-08-20T02:02:36;100425.16;;;19.07;55.58
70206;BME280;57593;55.896;37.396;2022-08-20T02:03:07;100414.47;;;19.07;55.22
70206;BME280;57593;55.896;37.396;2022-08-20T02:03:38;100421.72;;;19.06;55.34
70206;BME280;57593;55.896;37.396;2022-08-20T02:04:09;100424.81;;;19.08;55.20
70206;BME280;57593;55.896;37.396;2022-08-20T02:04:40;100426.00;;;19.11;55.34
70206;BME280;57593;55.896;37.396;2022-08-20T02:05:11;100425.94;;;19.07;55.73
70206;BME280;57593;55.896;37.396;2022-08-20T02:05:42;100417.47;;;19.01;56.03
70206;BME280;57593;55.896;37.396;2022-08-20T02:06:13;100424.69;;;19.01;56.17
70206;BME280;57593;55.896;37.396;2022-08-20T02:06:48;100427.25;;;18.90;56.36
70206;BME280;57593;55.896;37.396;2022-08-20T02:07:21;100421.97;;;18.97;56.48
70206;BME280;57593;55.896;37.396;2022-08-20T02:07:52;100426.25;;;19.02;56.03
70206;BME280;57593;55.896;37.396;2022-08-20T02:08:24;100427.69;;;18.96;56.06
70206;BME280;57593;55.896;37.396;2022-08-20T02:08:58;100429.28;;;19.00;55.80
70206;BME280;57593;55.896;37.396;2022-08-20T02:09:36;100423.41;;;18.91;55.70
70206;BME280;57593;55.896;37.396;2022-08-20T02:10:09;100428.78;;;18.91;55.81
70206;BME280;57593;55.896;37.396;2022-08-20T02:10:41;100421.19;;;18.93;56.00
70206;BME280;57593;55.896;37.396;2022-08-20T02:11:15;100418.53;;;18.97;55.57
70206;BME280;57593;55.896;37.396;2022-08-20T02:11:46;100424.25;;;18.95;55.49
70206;BME280;57593;55.896;37.396;2022-08-20T02:12:17;100422.25;;;18.89;55.51
70206;BME280;57593;55.896;37.396;2022-08-20T02:12:48;100424.25;;;18.95;55.59
70206;BME280;57593;55.896;37.396;2022-08-20T02:13:19;100423.91;;;18.97;55.40
70206;BME280;57593;55.896;37.396;2022-08-20T02:13:51;100424.66;;;18.97;55.25
70206;BME280;57593;55.896;37.396;2022-08-20T02:14:22;100419.72;;;18.99;55.36
70206;BME280;57593;55.896;37.396;2022-08-20T02:14:55;100418.13;;;18.95;55.44
70206;BME280;57593;55.896;37.396;2022-08-20T02:15:26;100423.91;;;18.97;55.39
70206;BME280;57593;55.896;37.396;2022-08-20T02:15:57;100421.19;;;18.93;55.28
70206;BME280;57593;55.896;37.396;2022-08-20T02:16:33;100425.38;;;18.94;55.48
70206;BME280;57593;55.896;37.396;2022-08-20T02:17:06;100425.38;;;18.94;55.43
70206;BME280;57593;55.896;37.396;2022-08-20T02:17:37;100418.03;;;18.88;55.60
70206;BME280;57593;55.896;37.396;2022-08-20T02:18:12;100422.09;;;18.81;55.79
70206;BME280;57593;55.896;37.396;2022-08-20T02:18:44;100425.16;;;18.80;55.97
70206;BME280;57593;55.896;37.396;2022-08-20T02:20:26;100425.28;;;18.87;55.58
70206;BME280;57593;55.896;37.396;2022-08-20T02:20:54;100416.09;;;18.88;55.48
70206;BME280;57593;55.896;37.396;2022-08-20T02:21:28;100422.31;;;18.92;55.33
70206;BME280;57593;55.896;37.396;2022-08-20T02:22:07;100421.19;;;18.93;55.26
70206;BME280;57593;55.896;37.396;2022-08-20T02:22:52;100423.41;;;18.91;55.37
70206;BME280;57593;55.896;37.396;2022-08-20T02:23:23;100424.44;;;18.83;55.55
70206;BME280;57593;55.896;37.396;2022-08-20T02:23:54;100419.16;;;18.86;55.66
70206;BME280;57593;55.896;37.396;2022-08-20T02:24:25;100422.34;;;18.96;55.50
70206;BME280;57593;55.896;37.396;2022-08-20T02:24:55;100427.25;;;18.90;55.41
70206;BME280;57593;55.896;37.396;2022-08-20T02:25:28;100425.28;;;18.87;55.34
70206;BME280;57593;55.896;37.396;2022-08-20T02:26:02;100421.91;;;18.90;55.38
70206;BME280;57593;55.896;37.396;2022-08-20T02:26:37;100426.41;;;18.86;55.50
70206;BME280;57593;55.896;37.396;2022-08-20T02:27:08;100421.91;;;18.90;55.49
70206;BME280;57593;55.896;37.396;2022-08-20T02:27:42;100421.94;;;18.94;55.40
70206;BME280;57593;55.896;37.396;2022-08-20T02:28:17;100426.41;;;18.86;55.27
70206;BME280;57593;55.896;37.396;2022-08-20T02:28:50;100422.47;;;18.80;55.40
70206;BME280;57593;55.896;37.396;2022-08-20T02:29:21;100427.09;;;18.83;55.60
70206;BME280;57593;55.896;37.396;2022-08-20T02:29:53;100428.31;;;18.85;55.84
70206;BME280;57593;55.896;37.396;2022-08-20T02:30:29;100429.22;;;18.93;55.52
70206;BME280;57593;55.896;37.396;2022-08-20T02:31:02;100428.66;;;18.84;55.58
70206;BME280;57593;55.896;37.396;2022-08-20T02:31:38;100428.66;;;18.84;55.51
70206;BME280;57593;55.896;37.396;2022-08-20T02:32:10;100429.84;;;18.86;55.32
70206;BME280;57593;55.896;37.396;2022-08-20T02:32:41;100423.38;;;18.88;55.37
70206;BME280;57593;55.896;37.396;2022-08-20T02:33:14;100434.00;;;18.84;55.22
70206;BME280;57593;55.896;37.396;2022-08-20T02:33:45;100436.34;;;18.85;55.16
70206;BME280;57593;55.896;37.396;2022-08-20T02:34:16;100426.81;;;18.88;55.09
70206;BME280;57593;55.896;37.396;2022-08-20T02:34:47;100431.34;;;18.84;55.20
70206;BME280;57593;55.896;37.396;2022-08-20T02:35:19;100428.00;;;18.91;55.05
70206;BME280;57593;55.896;37.396;2022-08-20T02:35:51;100428.72;;;18.88;55.21
70206;BME280;57593;55.896;37.396;2022-08-20T02:36:22;100431.03;;;18.89;55.34
70206;BME280;57593;55.896;37.396;2022-08-20T02:36:53;100426.34;;;18.82;55.06
70206;BME280;57593;55.896;37.396;2022-08-20T02:37:23;100441.19;;;18.80;55.36
70206;BME280;57593;55.896;37.396;2022-08-20T02:37:54;100433.31;;;18.87;55.07
70206;BME280;57593;55.896;37.396;2022-08-20T02:38:25;100429.00;;;18.82;55.33
70206;BME280;57593;55.896;37.396;2022-08-20T02:38:56;100426.53;;;18.70;55.41
70206;BME280;57593;55.896;37.396;2022-08-20T02:39:27;100431.09;;;18.69;55.43
70206;BME280;57593;55.896;37.396;2022-08-20T02:39:58;100439.13;;;18.69;55.63
70206;BME280;57593;55.896;37.396;2022-08-20T02:40:29;100437.25;;;18.70;55.52
70206;BME280;57593;55.896;37.396;2022-08-20T02:41:00;100435.28;;;18.67;55.78
70206;BME280;57593;55.896;37.396;2022-08-20T02:41:33;100430.44;;;18.76;55.36
70206;BME280;57593;55.896;37.396;2022-08-20T02:42:03;100431.22;;;18.77;55.58
70206;BME280;57593;55.896;37.396;2022-08-20T02:42:34;100433.94;;;18.80;55.38
70206;BME280;57593;55.896;37.396;2022-08-20T02:43:05;100437.69;;;18.76;55.35
70206;BME280;57593;55.896;37.396;2022-08-20T02:43:37;100436.00;;;18.87;55.11
70206;BME280;57593;55.896;37.396;2022-08-20T02:44:08;100437.81;;;18.83;55.35
70206;BME280;57593;55.896;37.396;2022-08-20T02:44:39;100436.25;;;18.82;55.28
70206;BME280;57593;55.896;37.396;2022-08-20T02:45:13;100437.41;;;18.81;55.64
70206;BME280;57593;55.896;37.396;2022-08-20T02:45:44;100438.69;;;18.87;55.47
70206;BME280;57593;55.896;37.396;2022-08-20T02:46:16;100437.25;;;18.93;55.28
70206;BME280;57593;55.896;37.396;2022-08-20T02:46:48;100441.81;;;18.93;55.25
70206;BME280;57593;55.896;37.396;2022-08-20T02:47:19;100443.59;;;18.85;55.26
70206;BME280;57593;55.896;37.396;2022-08-20T02:47:50;100441.03;;;18.92;55.08
70206;BME280;57593;55.896;37.396;2022-08-20T02:48:23;100435.28;;;18.90;55.10
70206;BME280;57593;55.896;37.396;2022-08-20T02:48:54;100445.66;;;18.95;55.03
70206;BME280;57593;55.896;37.396;2022-08-20T02:49:25;100443.31;;;18.90;55.03
70206;BME280;57593;55.896;37.396;2022-08-20T02:49:55;100438.53;;;18.80;54.97
70206;BME280;57593;55.896;37.396;2022-08-20T02:50:28;100443.00;;;18.95;54.91
70206;BME280;57593;55.896;37.396;2022-08-20T02:51:02;100447.59;;;18.95;54.76
70206;BME280;57593;55.896;37.396;2022-08-20T02:51:33;100439.47;;;18.91;54.87
70206;BME280;57593;55.896;37.396;2022-08-20T02:52:03;100445.28;;;18.93;54.85
70206;BME280;57593;55.896;37.396;2022-08-20T02:52:34;100450.06;;;18.84;54.84
70206;BME280;57593;55.896;37.396;2022-08-20T02:53:05;100447.31;;;18.80;55.26
70206;BME280;57593;55.896;37.396;2022-08-20T02:53:38;100442.88;;;18.88;54.90
70206;BME280;57593;55.896;37.396;2022-08-20T02:54:09;100441.75;;;18.89;55.03
70206;BME280;57593;55.896;37.396;2022-08-20T02:54:40;100445.91;;;18.86;54.85
70206;BME280;57593;55.896;37.396;2022-08-20T02:55:13;100439.25;;;18.77;55.20
70206;BME280;57593;55.896;37.396;2022-08-20T02:55:45;100443.22;;;18.86;55.03
70206;BME280;57593;55.896;37.396;2022-08-20T02:56:16;100439.78;;;18.86;54.94
70206;BME280;57593;55.896;37.396;2022-08-20T02:56:47;100439.84;;;18.90;54.90
70206;BME280;57593;55.896;37.396;2022-08-20T02:57:19;100437.53;;;18.88;54.88
70206;BME280;57593;55.896;37.396;2022-08-20T02:57:52;100437.53;;;18.88;55.14